createdAt,value
2022-08-17T00:00:42.746Z,4.17
2022-08-17T00:03:15.393Z,4.40
2022-08-17T00:05:49.444Z,4.77
2022-08-17T00:08:22.578Z,4.67
2022-08-17T00:10:52.580Z,4.73
2022-08-17T00:13:25.268Z,4.80
2022-08-17T00:15:55.621Z,4.57
2022-08-17T00:19:06.512Z,4.33
2022-08-17T00:21:16.143Z,4.60
2022-08-17T00:23:52.596Z,4.37
2022-08-17T00:26:43.671Z,4.67
2022-08-17T00:29:10.841Z,4.70
2022-08-17T00:31:47.944Z,4.20
2022-08-17T00:34:17.577Z,4.03
2022-08-17T00:36:45.631Z,4.50
2022-08-17T00:39:13.740Z,4.10
2022-08-17T00:41:42.370Z,4.40
2022-08-17T00:44:12.041Z,4.03
2022-08-17T00:46:43.917Z,4.00
2022-08-17T00:49:15.922Z,4.67
2022-08-17T00:51:50.874Z,4.23
2022-08-17T00:54:28.030Z,4.17
2022-08-17T00:56:59.813Z,4.33
2022-08-17T00:59:32.912Z,4.10
2022-08-17T01:02:02.530Z,3.97
2022-08-17T01:04:32.328Z,4.57
2022-08-17T01:07:04.540Z,5.20
2022-08-17T01:09:33.840Z,4.60
2022-08-17T01:12:02.014Z,4.70
2022-08-17T01:14:30.050Z,5.13
2022-08-17T01:16:58.265Z,5.80
2022-08-17T01:19:29.603Z,5.17
2022-08-17T01:22:07.701Z,5.33
2022-08-17T01:24:39.227Z,5.83
2022-08-17T01:27:10.668Z,4.27
2022-08-17T01:29:44.301Z,4.17
2022-08-17T01:32:13.011Z,4.30
2022-08-17T01:34:42.551Z,4.83
2022-08-17T01:37:13.181Z,4.43
2022-08-17T01:39:49.123Z,5.33
2022-08-17T01:42:24.614Z,5.00
2022-08-17T01:44:58.999Z,5.20
2022-08-17T01:47:27.303Z,5.17
2022-08-17T01:49:57.851Z,5.53
2022-08-17T01:52:25.897Z,5.30
2022-08-17T01:54:55.849Z,5.20
2022-08-17T01:57:23.864Z,4.60
2022-08-17T01:59:52.075Z,4.80
2022-08-17T02:02:31.340Z,4.50
2022-08-17T02:05:00.019Z,4.30
2022-08-17T02:07:28.698Z,4.87
2022-08-17T02:09:58.395Z,4.53
2022-08-17T02:12:38.278Z,4.97
2022-08-17T02:15:12.403Z,4.80
2022-08-17T02:17:41.467Z,4.93
2022-08-17T02:20:11.515Z,4.87
2022-08-17T02:22:43.647Z,5.23
2022-08-17T02:25:17.512Z,4.90
2022-08-17T02:27:45.702Z,4.70
2022-08-17T02:30:59.850Z,4.80
2022-08-17T02:33:06.401Z,5.27
2022-08-17T02:35:38.243Z,4.87
2022-08-17T02:38:07.305Z,4.47
2022-08-17T02:40:40.596Z,4.20
2022-08-17T02:43:09.901Z,4.17
2022-08-17T02:45:38.102Z,4.00
2022-08-17T02:48:06.442Z,4.77
2022-08-17T02:50:34.501Z,4.97
2022-08-17T02:53:02.926Z,4.93
2022-08-17T02:55:40.117Z,5.00
2022-08-17T02:58:08.301Z,5.17
2022-08-17T03:00:42.284Z,5.13
2022-08-17T03:03:13.563Z,5.30
2022-08-17T03:05:41.774Z,4.73
2022-08-17T03:08:10.459Z,5.43
2022-08-17T03:10:43.622Z,5.40
2022-08-17T03:13:12.631Z,5.10
2022-08-17T03:15:41.577Z,5.20
2022-08-17T03:18:21.966Z,4.83
2022-08-17T03:20:55.244Z,4.93
2022-08-17T03:23:25.282Z,4.77
2022-08-17T03:25:56.037Z,5.10
2022-08-17T03:28:26.065Z,5.30
2022-08-17T03:30:54.320Z,4.93
2022-08-17T03:33:22.953Z,4.73
2022-08-17T03:35:51.644Z,4.50
2022-08-17T03:38:20.291Z,5.20
2022-08-17T03:40:58.796Z,4.70
2022-08-17T03:43:34.445Z,4.97
2022-08-17T03:46:28.423Z,4.70
2022-08-17T03:49:22.065Z,5.17
2022-08-17T03:52:07.954Z,5.07
2022-08-17T03:54:53.541Z,5.03
2022-08-17T03:57:21.793Z,5.27
2022-08-17T03:59:51.679Z,5.03
2022-08-17T04:02:29.057Z,5.23
2022-08-17T04:04:57.951Z,4.87
2022-08-17T04:07:29.587Z,4.87
2022-08-17T04:09:59.295Z,4.90
2022-08-17T04:12:30.721Z,5.47
2022-08-17T04:15:00.713Z,5.30
2022-08-17T04:17:30.246Z,5.00
2022-08-17T04:19:58.373Z,5.00
2022-08-17T04:22:32.572Z,4.63
2022-08-17T04:25:10.125Z,5.57
2022-08-17T04:27:38.181Z,4.60
2022-08-17T04:30:09.624Z,4.97
2022-08-17T04:33:10.646Z,4.70
2022-08-17T04:35:41.717Z,5.20
2022-08-17T04:38:13.535Z,4.93
2022-08-17T04:40:59.771Z,4.63
2022-08-17T04:43:29.595Z,4.90
2022-08-17T04:46:02.592Z,5.27
2022-08-17T04:48:36.159Z,4.80
2022-08-17T04:51:09.549Z,4.83
2022-08-17T04:53:39.499Z,5.00
2022-08-17T04:56:16.116Z,4.63
2022-08-17T04:58:46.210Z,4.87
2022-08-17T05:01:16.485Z,4.33
2022-08-17T05:03:52.113Z,4.33
2022-08-17T05:06:20.427Z,4.60
2022-08-17T05:08:48.522Z,4.90
2022-08-17T05:11:16.707Z,4.70
2022-08-17T05:13:44.988Z,4.43
2022-08-17T05:16:13.229Z,4.30
2022-08-17T05:18:42.635Z,4.53
2022-08-17T05:21:10.662Z,4.80
2022-08-17T05:23:42.609Z,5.00
2022-08-17T05:26:21.947Z,5.10
2022-08-17T05:29:00.558Z,4.63
2022-08-17T05:31:31.933Z,4.40
2022-08-17T05:34:01.493Z,4.70
2022-08-17T05:36:42.153Z,4.83
2022-08-17T05:39:16.333Z,4.57
2022-08-17T05:41:47.750Z,4.23
2022-08-17T05:44:16.319Z,4.80
2022-08-17T05:46:51.062Z,4.33
2022-08-17T05:49:29.472Z,4.13
2022-08-17T05:52:18.766Z,4.50
2022-08-17T05:55:05.912Z,4.30
2022-08-17T05:57:47.516Z,4.80
2022-08-17T06:00:30.568Z,4.50
2022-08-17T06:03:23.401Z,4.50
2022-08-17T06:06:09.766Z,4.60
2022-08-17T06:08:51.715Z,4.20
2022-08-17T06:11:29.501Z,4.67
2022-08-17T06:14:22.430Z,4.20
2022-08-17T06:16:56.891Z,4.70
2022-08-17T06:19:34.335Z,4.07
2022-08-17T06:22:06.632Z,4.80
2022-08-17T06:24:40.024Z,4.70
2022-08-17T06:27:19.755Z,4.77
2022-08-17T06:29:56.763Z,4.70
2022-08-17T06:32:26.549Z,4.40
2022-08-17T06:34:55.276Z,4.70
2022-08-17T06:37:54.799Z,4.63
2022-08-17T06:40:53.011Z,4.13
2022-08-17T06:43:40.203Z,4.10
2022-08-17T06:46:13.906Z,3.70
2022-08-17T06:48:47.721Z,3.97
2022-08-17T06:51:25.856Z,4.27
2022-08-17T06:54:05.794Z,4.40
2022-08-17T06:56:53.808Z,4.27
2022-08-17T06:59:47.190Z,4.30
2022-08-17T07:02:52.001Z,4.37
2022-08-17T07:05:25.018Z,3.83
2022-08-17T07:08:03.697Z,4.03
2022-08-17T07:10:44.172Z,4.47
2022-08-17T07:13:29.404Z,3.90
2022-08-17T07:16:14.638Z,4.17
2022-08-17T07:18:43.699Z,3.90
2022-08-17T07:21:27.365Z,4.23
2022-08-17T07:24:29.632Z,4.10
2022-08-17T07:27:11.003Z,4.70
2022-08-17T07:29:44.454Z,4.07
2022-08-17T07:32:18.247Z,3.70
2022-08-17T07:35:15.264Z,3.60
2022-08-17T07:37:53.142Z,3.67
2022-08-17T07:40:33.443Z,3.60
2022-08-17T07:43:22.206Z,4.00
2022-08-17T07:46:32.568Z,3.77
2022-08-17T07:49:21.914Z,3.97
2022-08-17T07:52:48.517Z,3.60
2022-08-17T07:54:49.723Z,3.63
2022-08-17T07:57:36.656Z,3.20
2022-08-17T08:00:29.197Z,3.40
2022-08-17T08:03:21.620Z,3.87
2022-08-17T08:05:57.326Z,3.80
2022-08-17T08:08:38.466Z,4.30
2022-08-17T08:11:11.507Z,3.50
2022-08-17T08:13:43.927Z,3.50
2022-08-17T08:16:30.141Z,3.60
2022-08-17T08:19:01.651Z,3.50
2022-08-17T08:21:44.500Z,3.60
2022-08-17T08:24:33.830Z,3.30
2022-08-17T08:27:20.355Z,3.47
2022-08-17T08:29:58.021Z,3.87
2022-08-17T08:32:50.311Z,3.17
2022-08-17T08:35:29.531Z,3.80
2022-08-17T08:38:12.111Z,3.17
2022-08-17T08:40:57.234Z,3.70
2022-08-17T08:43:38.033Z,3.47
2022-08-17T08:46:19.698Z,3.60
2022-08-17T08:50:02.195Z,3.27
2022-08-17T08:52:45.414Z,3.50
2022-08-17T08:55:20.735Z,3.30
2022-08-17T08:57:57.858Z,3.30
2022-08-17T09:00:27.742Z,3.23
2022-08-17T09:03:53.037Z,3.60
2022-08-17T09:06:43.375Z,3.50
2022-08-17T09:09:26.900Z,3.97
2022-08-17T09:12:06.423Z,3.30
2022-08-17T09:14:45.021Z,3.20
2022-08-17T09:17:19.856Z,3.20
2022-08-17T09:19:55.945Z,3.53
2022-08-17T09:22:35.832Z,3.53
2022-08-17T09:25:10.002Z,3.53
2022-08-17T09:27:53.137Z,2.90
2022-08-17T09:30:23.656Z,3.77
2022-08-17T09:32:57.580Z,3.47
2022-08-17T09:35:37.054Z,3.77
2022-08-17T09:38:22.164Z,3.30
2022-08-17T09:40:58.081Z,3.50
2022-08-17T09:43:39.319Z,3.73
2022-08-17T09:46:16.849Z,4.23
2022-08-17T09:48:51.624Z,4.23
2022-08-17T09:51:30.525Z,3.87
2022-08-17T09:54:21.049Z,4.27
2022-08-17T09:57:25.873Z,5.77
2022-08-17T10:00:07.746Z,5.47
2022-08-17T10:03:21.922Z,4.93
2022-08-17T10:05:57.479Z,3.83
2022-08-17T10:08:40.194Z,3.47
2022-08-17T10:11:33.462Z,3.33
2022-08-17T10:14:36.720Z,3.43
2022-08-17T10:17:11.100Z,3.30
2022-08-17T10:19:46.308Z,3.47
2022-08-17T10:22:44.633Z,4.37
2022-08-17T10:25:53.649Z,3.43
2022-08-17T10:28:30.399Z,3.13
2022-08-17T10:31:33.766Z,3.73
2022-08-17T10:34:22.721Z,3.50
2022-08-17T10:36:59.390Z,3.60
2022-08-17T10:39:35.838Z,3.47
2022-08-17T10:42:32.435Z,3.83
2022-08-17T10:45:07.641Z,3.50
2022-08-17T10:48:06.150Z,4.27
2022-08-17T10:50:59.672Z,3.60
2022-08-17T10:54:04.839Z,3.70
2022-08-17T10:56:50.966Z,3.70
2022-08-17T10:59:50.860Z,3.47
2022-08-17T11:02:31.454Z,3.97
2022-08-17T11:05:32.330Z,4.13
2022-08-17T11:08:27.592Z,3.97
2022-08-17T11:11:14.861Z,4.20
2022-08-17T11:13:53.013Z,4.20
2022-08-17T11:16:48.102Z,4.53
2022-08-17T11:19:50.013Z,4.27
2022-08-17T11:23:07.519Z,3.87
2022-08-17T11:25:39.685Z,4.00
2022-08-17T11:28:19.938Z,4.00
2022-08-17T11:30:53.213Z,4.20
2022-08-17T11:33:58.081Z,4.50
2022-08-17T11:37:31.564Z,3.83
2022-08-17T11:40:38.580Z,4.10
2022-08-17T11:43:33.476Z,4.30
2022-08-17T11:46:18.662Z,4.53
2022-08-17T11:49:27.691Z,4.07
2022-08-17T11:52:39.357Z,4.77
2022-08-17T11:55:33.883Z,5.30
2022-08-17T11:58:03.929Z,4.70
2022-08-17T12:00:57.356Z,5.23
2022-08-17T12:03:54.321Z,4.83
2022-08-17T12:06:35.727Z,4.53
2022-08-17T12:09:14.681Z,4.13
2022-08-17T12:12:11.109Z,4.73
2022-08-17T12:15:08.499Z,4.73
2022-08-17T12:17:41.550Z,4.80
2022-08-17T12:20:17.152Z,5.53
2022-08-17T12:22:57.485Z,4.73
2022-08-17T12:25:35.698Z,5.23
2022-08-17T12:28:07.569Z,4.70
2022-08-17T12:30:37.324Z,4.53
2022-08-17T12:33:13.684Z,5.03
2022-08-17T12:35:59.946Z,4.63
2022-08-17T12:38:32.823Z,5.37
2022-08-17T12:41:26.273Z,4.47
2022-08-17T12:44:01.509Z,4.70
2022-08-17T12:46:33.469Z,4.43
2022-08-17T12:49:25.147Z,4.40
2022-08-17T12:52:07.966Z,4.50
2022-08-17T12:54:50.409Z,3.83
2022-08-17T12:57:24.425Z,4.67
2022-08-17T12:59:59.599Z,4.60
2022-08-17T13:02:45.066Z,3.90
2022-08-17T13:05:23.849Z,4.37
2022-08-17T13:07:54.467Z,4.07
2022-08-17T13:10:32.434Z,4.20
2022-08-17T13:13:05.799Z,3.80
2022-08-17T13:15:44.506Z,3.77
2022-08-17T13:18:38.901Z,3.37
2022-08-17T13:21:12.471Z,3.60
2022-08-17T13:23:48.822Z,3.67
2022-08-17T13:26:32.732Z,3.60
2022-08-17T13:29:06.227Z,3.50
2022-08-17T13:31:50.416Z,3.50
2022-08-17T13:34:38.120Z,3.40
2022-08-17T13:37:33.433Z,3.20
2022-08-17T13:40:36.506Z,3.57
2022-08-17T13:43:05.415Z,3.07
2022-08-17T13:45:52.211Z,3.30
2022-08-17T13:48:26.176Z,2.83
2022-08-17T13:51:26.281Z,3.37
2022-08-17T13:54:28.991Z,3.60
2022-08-17T13:57:02.272Z,3.23
2022-08-17T13:59:54.884Z,2.70
2022-08-17T14:02:25.948Z,3.03
2022-08-17T14:04:57.855Z,3.03
2022-08-17T14:07:34.593Z,3.20
2022-08-17T14:10:10.196Z,3.00
2022-08-17T14:12:43.406Z,2.80
2022-08-17T14:15:14.025Z,3.20
2022-08-17T14:17:42.280Z,3.40
2022-08-17T14:20:13.486Z,3.33
2022-08-17T14:22:47.135Z,2.73
2022-08-17T14:25:18.650Z,3.40
2022-08-17T14:27:53.375Z,2.50
2022-08-17T14:30:24.971Z,2.87
2022-08-17T14:32:54.197Z,2.67
2022-08-17T14:35:24.841Z,2.90
2022-08-17T14:37:53.688Z,3.10
2022-08-17T14:40:24.654Z,2.80
2022-08-17T14:42:56.668Z,3.03
2022-08-17T14:45:31.662Z,3.27
2022-08-17T14:48:05.544Z,2.93
2022-08-17T14:50:35.478Z,2.70
2022-08-17T14:53:05.608Z,2.60
2022-08-17T14:55:34.549Z,3.10
2022-08-17T14:58:04.897Z,2.60
2022-08-17T15:00:33.561Z,2.87
2022-08-17T15:03:03.386Z,2.80
2022-08-17T15:05:34.783Z,2.80
2022-08-17T15:08:04.579Z,2.83
2022-08-17T15:10:33.870Z,3.10
2022-08-17T15:13:03.457Z,2.60
2022-08-17T15:15:31.905Z,2.53
2022-08-17T15:18:01.110Z,2.80
2022-08-17T15:20:30.831Z,3.00
2022-08-17T15:22:59.590Z,2.87
2022-08-17T15:25:32.922Z,3.03
2022-08-17T15:28:03.064Z,2.80
2022-08-17T15:30:32.095Z,3.20
2022-08-17T15:33:04.065Z,3.20
2022-08-17T15:35:34.719Z,3.10
2022-08-17T15:38:11.630Z,2.93
2022-08-17T15:40:44.898Z,3.33
2022-08-17T15:43:17.376Z,2.83
2022-08-17T15:45:52.502Z,3.13
2022-08-17T15:48:40.607Z,3.13
2022-08-17T15:51:11.615Z,3.17
2022-08-17T15:53:41.195Z,3.47
2022-08-17T15:56:09.588Z,3.03
2022-08-17T15:58:40.085Z,3.17
2022-08-17T16:01:16.490Z,2.73
2022-08-17T16:04:04.655Z,2.50
2022-08-17T16:06:36.169Z,3.10
2022-08-17T16:09:04.761Z,3.03
2022-08-17T16:11:32.817Z,3.17
2022-08-17T16:14:02.214Z,3.20
2022-08-17T16:16:31.240Z,3.17
2022-08-17T16:18:59.449Z,3.10
2022-08-17T16:21:29.583Z,3.00
2022-08-17T16:24:02.263Z,3.43
2022-08-17T16:26:32.537Z,3.30
2022-08-17T16:29:06.131Z,2.97
2022-08-17T16:31:35.927Z,3.37
2022-08-17T16:34:17.305Z,2.77
2022-08-17T16:36:53.723Z,2.87
2022-08-17T16:39:25.180Z,3.20
2022-08-17T16:41:53.196Z,3.17
2022-08-17T16:44:23.108Z,2.87
2022-08-17T16:46:51.425Z,3.10
2022-08-17T16:49:32.436Z,3.03
2022-08-17T16:52:09.706Z,3.03
2022-08-17T16:54:40.569Z,3.20
2022-08-17T16:57:08.707Z,3.00
2022-08-17T16:59:41.997Z,2.90
2022-08-17T17:02:15.154Z,3.67
2022-08-17T17:04:52.591Z,3.60
2022-08-17T17:07:49.573Z,3.40
2022-08-17T17:10:22.226Z,2.97
2022-08-17T17:13:01.689Z,2.93
2022-08-17T17:15:54.989Z,3.30
2022-08-17T17:18:40.113Z,3.17
2022-08-17T17:21:15.162Z,3.60
2022-08-17T17:23:55.974Z,3.07
2022-08-17T17:26:55.188Z,3.00
2022-08-17T17:29:47.769Z,3.27
2022-08-17T17:32:22.797Z,2.87
2022-08-17T17:34:58.706Z,3.10
2022-08-17T17:37:33.336Z,2.97
2022-08-17T17:40:07.576Z,3.10
2022-08-17T17:42:36.512Z,3.10
2022-08-17T17:45:13.044Z,2.87
2022-08-17T17:47:42.723Z,3.43
2022-08-17T17:50:11.578Z,3.90
2022-08-17T17:52:55.773Z,2.80
2022-08-17T17:55:44.011Z,3.50
2022-08-17T17:58:34.176Z,2.97
2022-08-17T18:01:26.300Z,3.43
2022-08-17T18:04:18.919Z,3.83
2022-08-17T18:07:20.545Z,3.67
2022-08-17T18:10:04.861Z,3.53
2022-08-17T18:12:59.168Z,3.50
2022-08-17T18:15:33.972Z,3.63
2022-08-17T18:18:28.745Z,3.57
2022-08-17T18:21:06.403Z,3.27
2022-08-17T18:23:35.192Z,3.50
2022-08-17T18:26:03.288Z,3.57
2022-08-17T18:28:38.915Z,3.63
2022-08-17T18:31:16.407Z,3.90
2022-08-17T18:33:47.234Z,3.93
2022-08-17T18:36:29.773Z,3.83
2022-08-17T18:39:15.146Z,4.10
2022-08-17T18:41:45.789Z,3.50
2022-08-17T18:44:26.363Z,3.40
2022-08-17T18:47:13.212Z,4.00
2022-08-17T18:49:44.195Z,4.50
2022-08-17T18:52:23.515Z,3.87
2022-08-17T18:55:05.612Z,3.93
2022-08-17T18:57:37.811Z,4.33
2022-08-17T19:00:15.191Z,3.80
2022-08-17T19:02:53.899Z,4.67
2022-08-17T19:05:35.446Z,4.60
2022-08-17T19:08:24.334Z,4.20
2022-08-17T19:10:56.560Z,4.40
2022-08-17T19:13:31.934Z,4.47
2022-08-17T19:16:14.360Z,3.80
2022-08-17T19:18:49.268Z,3.67
2022-08-17T19:21:23.661Z,4.97
2022-08-17T19:24:01.482Z,5.43
2022-08-17T19:26:54.895Z,5.80
2022-08-17T19:29:34.401Z,4.83
2022-08-17T19:32:03.415Z,5.00
2022-08-17T19:34:35.382Z,5.40
2022-08-17T19:37:12.376Z,4.37
2022-08-17T19:39:56.088Z,4.00
2022-08-17T19:42:37.124Z,4.00
2022-08-17T19:45:16.085Z,3.73
2022-08-17T19:47:56.008Z,3.80
2022-08-17T19:50:38.224Z,3.50
2022-08-17T19:53:20.428Z,3.90
2022-08-17T19:56:01.222Z,4.07
2022-08-17T19:58:48.183Z,3.97
2022-08-17T20:01:29.916Z,4.00
2022-08-17T20:04:13.409Z,4.07
2022-08-17T20:06:49.165Z,4.93
2022-08-17T20:09:33.755Z,4.87
2022-08-17T20:12:10.031Z,4.23
2022-08-17T20:14:53.463Z,3.80
2022-08-17T20:17:28.607Z,3.73
2022-08-17T20:20:07.459Z,4.13
2022-08-17T20:22:55.239Z,4.23
2022-08-17T20:25:34.702Z,4.63
2022-08-17T20:28:16.302Z,4.73
2022-08-17T20:30:45.198Z,5.03
2022-08-17T20:33:27.277Z,4.80
2022-08-17T20:36:18.702Z,4.50
2022-08-17T20:38:50.298Z,4.87
2022-08-17T20:41:22.344Z,4.60
2022-08-17T20:44:05.493Z,4.57
2022-08-17T20:46:57.415Z,4.03
2022-08-17T20:49:33.046Z,4.33
2022-08-17T20:52:08.637Z,4.13
2022-08-17T20:54:48.808Z,4.53
2022-08-17T20:57:49.050Z,4.27
2022-08-17T21:00:46.249Z,4.27
2022-08-17T21:03:52.570Z,4.03
2022-08-17T21:06:25.961Z,4.10
2022-08-17T21:08:59.077Z,4.43
2022-08-17T21:12:04.083Z,4.53
2022-08-17T21:14:54.142Z,4.80
2022-08-17T21:17:41.805Z,4.37
2022-08-17T21:20:36.761Z,4.17
2022-08-17T21:23:23.379Z,5.23
2022-08-17T21:26:13.242Z,4.20
2022-08-17T21:29:01.702Z,4.43
2022-08-17T21:32:10.794Z,4.00
2022-08-17T21:34:43.380Z,3.90
2022-08-17T21:37:34.773Z,4.30
2022-08-17T21:40:24.273Z,4.53
2022-08-17T21:42:56.047Z,4.57
2022-08-17T21:45:29.862Z,4.40
2022-08-17T21:48:18.129Z,4.67
2022-08-17T21:51:03.960Z,4.50
2022-08-17T21:53:41.334Z,4.17
2022-08-17T21:56:12.560Z,4.27
2022-08-17T21:58:48.475Z,4.23
2022-08-17T22:01:24.895Z,4.40
2022-08-17T22:04:03.312Z,4.17
2022-08-17T22:06:38.573Z,4.17
2022-08-17T22:09:18.202Z,3.80
2022-08-17T22:12:05.462Z,4.40
2022-08-17T22:14:52.648Z,4.33
2022-08-17T22:17:25.718Z,3.93
2022-08-17T22:19:57.633Z,4.07
2022-08-17T22:22:34.541Z,3.60
2022-08-17T22:25:06.815Z,3.87
2022-08-17T22:28:03.173Z,3.53
2022-08-17T22:30:38.040Z,3.50
2022-08-17T22:33:37.081Z,3.33
2022-08-17T22:36:25.335Z,3.80
2022-08-17T22:38:57.741Z,3.20
2022-08-17T22:41:40.516Z,2.90
2022-08-17T22:44:17.160Z,3.40
2022-08-17T22:47:11.270Z,3.10
2022-08-17T22:49:54.008Z,3.20
2022-08-17T22:52:35.419Z,3.50
2022-08-17T22:55:32.765Z,3.60
2022-08-17T22:58:19.298Z,2.97
2022-08-17T23:00:49.999Z,3.30
2022-08-17T23:03:20.928Z,3.70
2022-08-17T23:06:03.640Z,3.30
2022-08-17T23:08:34.075Z,3.30
2022-08-17T23:11:03.682Z,3.53
2022-08-17T23:13:33.310Z,3.20
2022-08-17T23:16:02.339Z,3.70
2022-08-17T23:18:30.428Z,3.20
2022-08-17T23:20:58.541Z,3.33
2022-08-17T23:23:26.861Z,3.20
2022-08-17T23:25:55.398Z,3.57
2022-08-17T23:28:24.795Z,3.47
2022-08-17T23:30:52.948Z,3.50
2022-08-17T23:33:27.569Z,3.50
2022-08-17T23:35:55.711Z,3.20
2022-08-17T23:38:25.319Z,3.23
2022-08-17T23:40:53.926Z,3.67
2022-08-17T23:43:25.284Z,3.70
2022-08-17T23:45:57.351Z,3.13
2022-08-17T23:48:34.961Z,3.07
2022-08-17T23:51:12.634Z,3.40
2022-08-17T23:53:46.116Z,3.80
2022-08-17T23:56:15.097Z,3.47
2022-08-17T23:58:46.306Z,3.60
